sensor_id;sensor_type;location;lat;lon;timestamp;temperature;humidity
20291;DHT22;10304;51.074;13.754;2023-07-20T00:00:03;20.30;1.00
20291;DHT22;10304;51.074;13.754;2023-07-20T00:02:30;20.40;1.00
20291;DHT22;10304;51.074;13.754;2023-07-20T00:04:57;20.50;1.00
20291;DHT22;10304;51.074;13.754;2023-07-20T00:07:24;20.50;1.00
20291;DHT22;10304;51.074;13.754;2023-07-20T00:09:51;20.60;99.90
20291;DHT22;10304;51.074;13.754;2023-07-20T00:12:18;20.60;99.90
20291;DHT22;10304;51.074;13.754;2023-07-20T00:14:45;20.60;99.90
20291;DHT22;10304;51.074;13.754;2023-07-20T00:17:14;20.50;99.90
20291;DHT22;10304;51.074;13.754;2023-07-20T00:20:01;20.60;99.90
20291;DHT22;10304;51.074;13.754;2023-07-20T00:30:19;20.50;1.00
20291;DHT22;10304;51.074;13.754;2023-07-20T00:32:49;20.60;1.00
20291;DHT22;10304;51.074;13.754;2023-07-20T00:35:15;20.60;1.00
20291;DHT22;10304;51.074;13.754;2023-07-20T00:37:43;20.70;99.90
20291;DHT22;10304;51.074;13.754;2023-07-20T00:44:06;20.70;1.00
20291;DHT22;10304;51.074;13.754;2023-07-20T00:46:32;20.70;1.00
20291;DHT22;10304;51.074;13.754;2023-07-20T00:49:00;20.60;1.00
20291;DHT22;10304;51.074;13.754;2023-07-20T00:51:27;20.50;1.00
20291;DHT22;10304;51.074;13.754;2023-07-20T00:53:54;20.40;20.70
20291;DHT22;10304;51.074;13.754;2023-07-20T00:56:22;20.50;99.90
20291;DHT22;10304;51.074;13.754;2023-07-20T00:58:49;20.50;89.70
20291;DHT22;10304;51.074;13.754;2023-07-20T01:01:17;20.50;1.00
20291;DHT22;10304;51.074;13.754;2023-07-20T01:03:43;20.50;99.90
20291;DHT22;10304;51.074;13.754;2023-07-20T01:12:05;20.50;99.90
20291;DHT22;10304;51.074;13.754;2023-07-20T01:14:34;20.60;99.90
20291;DHT22;10304;51.074;13.754;2023-07-20T01:17:02;20.60;1.00
20291;DHT22;10304;51.074;13.754;2023-07-20T01:19:29;20.60;99.90
20291;DHT22;10304;51.074;13.754;2023-07-20T01:22:03;20.60;99.90
20291;DHT22;10304;51.074;13.754;2023-07-20T01:30:46;20.50;99.90
20291;DHT22;10304;51.074;13.754;2023-07-20T01:33:19;20.50;1.00
20291;DHT22;10304;51.074;13.754;2023-07-20T01:35:53;20.40;99.90
20291;DHT22;10304;51.074;13.754;2023-07-20T01:38:21;20.40;1.00
20291;DHT22;10304;51.074;13.754;2023-07-20T01:40:49;20.30;1.00
20291;DHT22;10304;51.074;13.754;2023-07-20T01:43:17;20.30;1.00
20291;DHT22;10304;51.074;13.754;2023-07-20T01:45:44;20.30;99.90
20291;DHT22;10304;51.074;13.754;2023-07-20T01:48:11;20.30;99.90
20291;DHT22;10304;51.074;13.754;2023-07-20T01:50:38;20.40;99.90
20291;DHT22;10304;51.074;13.754;2023-07-20T01:53:05;20.40;99.90
20291;DHT22;10304;51.074;13.754;2023-07-20T01:55:31;20.40;99.90
20291;DHT22;10304;51.074;13.754;2023-07-20T01:57:58;20.40;1.00
20291;DHT22;10304;51.074;13.754;2023-07-20T02:00:26;20.50;99.90
20291;DHT22;10304;51.074;13.754;2023-07-20T02:02:53;20.50;99.90
20291;DHT22;10304;51.074;13.754;2023-07-20T02:05:20;20.50;99.90
20291;DHT22;10304;51.074;13.754;2023-07-20T02:07:47;20.50;1.00
20291;DHT22;10304;51.074;13.754;2023-07-20T02:10:15;20.50;1.00
20291;DHT22;10304;51.074;13.754;2023-07-20T02:12:42;20.40;1.00
20291;DHT22;10304;51.074;13.754;2023-07-20T02:15:10;20.40;1.00
20291;DHT22;10304;51.074;13.754;2023-07-20T02:17:36;20.40;1.00
20291;DHT22;10304;51.074;13.754;2023-07-20T02:20:04;20.40;1.00
20291;DHT22;10304;51.074;13.754;2023-07-20T02:22:31;20.40;1.00
20291;DHT22;10304;51.074;13.754;2023-07-20T02:24:58;20.40;1.00
20291;DHT22;10304;51.074;13.754;2023-07-20T02:27:25;20.40;1.00
20291;DHT22;10304;51.074;13.754;2023-07-20T02:29:52;20.40;1.00
20291;DHT22;10304;51.074;13.754;2023-07-20T02:32:19;20.50;1.00
20291;DHT22;10304;51.074;13.754;2023-07-20T02:34:46;20.50;1.00
20291;DHT22;10304;51.074;13.754;2023-07-20T02:37:12;20.50;99.90
20291;DHT22;10304;51.074;13.754;2023-07-20T02:39:40;20.50;99.90
20291;DHT22;10304;51.074;13.754;2023-07-20T02:42:07;20.40;99.90
20291;DHT22;10304;51.074;13.754;2023-07-20T02:44:34;20.30;99.90
20291;DHT22;10304;51.074;13.754;2023-07-20T02:47:01;20.30;1.00
20291;DHT22;10304;51.074;13.754;2023-07-20T02:49:28;20.20;1.00
20291;DHT22;10304;51.074;13.754;2023-07-20T02:51:55;20.30;1.00
20291;DHT22;10304;51.074;13.754;2023-07-20T02:54:22;20.30;1.00
20291;DHT22;10304;51.074;13.754;2023-07-20T02:56:49;20.40;1.00
20291;DHT22;10304;51.074;13.754;2023-07-20T02:59:16;20.40;1.00
20291;DHT22;10304;51.074;13.754;2023-07-20T03:01:43;20.40;1.00
20291;DHT22;10304;51.074;13.754;2023-07-20T03:04:10;20.40;1.00
20291;DHT22;10304;51.074;13.754;2023-07-20T03:06:37;20.40;1.00
20291;DHT22;10304;51.074;13.754;2023-07-20T03:09:04;20.40;1.00
20291;DHT22;10304;51.074;13.754;2023-07-20T03:11:32;20.30;1.00
20291;DHT22;10304;51.074;13.754;2023-07-20T03:13:59;20.40;99.90
20291;DHT22;10304;51.074;13.754;2023-07-20T03:16:26;20.30;1.00
20291;DHT22;10304;51.074;13.754;2023-07-20T03:18:53;20.20;1.00
20291;DHT22;10304;51.074;13.754;2023-07-20T03:21:20;20.20;1.00
20291;DHT22;10304;51.074;13.754;2023-07-20T03:23:47;20.20;1.00
20291;DHT22;10304;51.074;13.754;2023-07-20T03:26:14;20.10;20.70
20291;DHT22;10304;51.074;13.754;2023-07-20T03:28:41;20.20;99.90
20291;DHT22;10304;51.074;13.754;2023-07-20T03:31:09;20.20;99.90
20291;DHT22;10304;51.074;13.754;2023-07-20T03:33:37;20.20;99.90
20291;DHT22;10304;51.074;13.754;2023-07-20T03:44:47;20.50;1.00
20291;DHT22;10304;51.074;13.754;2023-07-20T03:50:38;20.40;99.90
20291;DHT22;10304;51.074;13.754;2023-07-20T03:53:04;20.40;1.00
20291;DHT22;10304;51.074;13.754;2023-07-20T03:55:33;20.40;1.00
20291;DHT22;10304;51.074;13.754;2023-07-20T03:58:08;20.40;99.90
20291;DHT22;10304;51.074;13.754;2023-07-20T04:00:35;20.50;1.00
20291;DHT22;10304;51.074;13.754;2023-07-20T04:03:36;20.50;1.00
20291;DHT22;10304;51.074;13.754;2023-07-20T04:06:24;20.50;99.90
20291;DHT22;10304;51.074;13.754;2023-07-20T04:09:07;20.50;99.90
20291;DHT22;10304;51.074;13.754;2023-07-20T04:11:37;20.40;99.90
20291;DHT22;10304;51.074;13.754;2023-07-20T04:14:04;20.50;99.90
20291;DHT22;10304;51.074;13.754;2023-07-20T04:16:31;20.50;99.90
20291;DHT22;10304;51.074;13.754;2023-07-20T04:19:00;20.50;99.90
20291;DHT22;10304;51.074;13.754;2023-07-20T04:21:29;20.40;12.90
20291;DHT22;10304;51.074;13.754;2023-07-20T04:23:56;20.50;99.90
20291;DHT22;10304;51.074;13.754;2023-07-20T04:26:23;20.50;1.00
20291;DHT22;10304;51.074;13.754;2023-07-20T04:28:58;20.60;1.00
20291;DHT22;10304;51.074;13.754;2023-07-20T04:31:28;20.50;1.00
20291;DHT22;10304;51.074;13.754;2023-07-20T04:33:55;20.60;1.00
20291;DHT22;10304;51.074;13.754;2023-07-20T04:36:27;20.60;1.00
20291;DHT22;10304;51.074;13.754;2023-07-20T04:38:54;20.60;1.00
20291;DHT22;10304;51.074;13.754;2023-07-20T04:41:20;20.70;99.90
20291;DHT22;10304;51.074;13.754;2023-07-20T04:43:48;20.60;99.90
20291;DHT22;10304;51.074;13.754;2023-07-20T04:46:15;20.50;1.00
20291;DHT22;10304;51.074;13.754;2023-07-20T04:48:46;20.40;1.00
20291;DHT22;10304;51.074;13.754;2023-07-20T04:51:14;20.30;1.00
20291;DHT22;10304;51.074;13.754;2023-07-20T04:53:49;20.30;1.00
20291;DHT22;10304;51.074;13.754;2023-07-20T04:56:19;20.30;99.90
20291;DHT22;10304;51.074;13.754;2023-07-20T04:58:46;20.30;56.10
20291;DHT22;10304;51.074;13.754;2023-07-20T05:01:16;20.30;62.80
20291;DHT22;10304;51.074;13.754;2023-07-20T05:03:46;20.30;99.90
20291;DHT22;10304;51.074;13.754;2023-07-20T05:06:13;20.30;99.90
20291;DHT22;10304;51.074;13.754;2023-07-20T05:08:49;20.30;99.90
20291;DHT22;10304;51.074;13.754;2023-07-20T05:11:16;20.30;1.00
20291;DHT22;10304;51.074;13.754;2023-07-20T05:13:43;20.40;1.00
20291;DHT22;10304;51.074;13.754;2023-07-20T05:16:09;20.40;99.90
20291;DHT22;10304;51.074;13.754;2023-07-20T05:18:36;20.40;99.90
20291;DHT22;10304;51.074;13.754;2023-07-20T05:21:05;20.40;99.90
20291;DHT22;10304;51.074;13.754;2023-07-20T05:23:32;20.40;99.90
20291;DHT22;10304;51.074;13.754;2023-07-20T05:25:59;20.40;99.90
20291;DHT22;10304;51.074;13.754;2023-07-20T05:28:36;20.30;99.90
20291;DHT22;10304;51.074;13.754;2023-07-20T05:31:03;20.40;99.90
20291;DHT22;10304;51.074;13.754;2023-07-20T05:33:30;20.40;99.90
20291;DHT22;10304;51.074;13.754;2023-07-20T05:36:04;20.50;99.90
20291;DHT22;10304;51.074;13.754;2023-07-20T05:38:31;20.60;99.90
20291;DHT22;10304;51.074;13.754;2023-07-20T05:41:01;20.60;99.90
20291;DHT22;10304;51.074;13.754;2023-07-20T05:43:35;20.70;99.90
20291;DHT22;10304;51.074;13.754;2023-07-20T05:46:02;20.80;99.90
20291;DHT22;10304;51.074;13.754;2023-07-20T05:48:29;21.00;1.00
20291;DHT22;10304;51.074;13.754;2023-07-20T05:50:56;21.00;1.00
20291;DHT22;10304;51.074;13.754;2023-07-20T05:53:23;21.00;1.00
20291;DHT22;10304;51.074;13.754;2023-07-20T05:55:54;21.00;99.90
20291;DHT22;10304;51.074;13.754;2023-07-20T05:58:28;21.00;99.90
20291;DHT22;10304;51.074;13.754;2023-07-20T06:00:55;21.00;99.90
20291;DHT22;10304;51.074;13.754;2023-07-20T06:03:22;21.00;99.90
20291;DHT22;10304;51.074;13.754;2023-07-20T06:05:49;21.00;99.90
20291;DHT22;10304;51.074;13.754;2023-07-20T06:08:16;20.90;99.90
20291;DHT22;10304;51.074;13.754;2023-07-20T06:10:43;20.90;99.90
20291;DHT22;10304;51.074;13.754;2023-07-20T06:13:11;20.90;99.90
20291;DHT22;10304;51.074;13.754;2023-07-20T06:15:40;20.80;99.90
20291;DHT22;10304;51.074;13.754;2023-07-20T06:18:10;20.80;99.90
20291;DHT22;10304;51.074;13.754;2023-07-20T06:20:37;20.80;99.90
20291;DHT22;10304;51.074;13.754;2023-07-20T06:23:04;20.80;99.90
20291;DHT22;10304;51.074;13.754;2023-07-20T06:25:31;20.80;99.90
20291;DHT22;10304;51.074;13.754;2023-07-20T06:27:58;20.80;1.00
20291;DHT22;10304;51.074;13.754;2023-07-20T06:30:26;20.70;1.00
20291;DHT22;10304;51.074;13.754;2023-07-20T06:32:53;20.70;1.00
20291;DHT22;10304;51.074;13.754;2023-07-20T06:35:20;20.70;1.00
20291;DHT22;10304;51.074;13.754;2023-07-20T06:37:48;20.70;1.00
20291;DHT22;10304;51.074;13.754;2023-07-20T06:40:22;20.70;99.90
20291;DHT22;10304;51.074;13.754;2023-07-20T06:43:07;20.70;1.00
20291;DHT22;10304;51.074;13.754;2023-07-20T06:45:37;20.60;1.00
20291;DHT22;10304;51.074;13.754;2023-07-20T06:48:04;20.40;99.90
20291;DHT22;10304;51.074;13.754;2023-07-20T06:50:31;20.10;1.00
20291;DHT22;10304;51.074;13.754;2023-07-20T06:52:58;20.00;99.90
20291;DHT22;10304;51.074;13.754;2023-07-20T06:55:26;19.90;99.90
20291;DHT22;10304;51.074;13.754;2023-07-20T06:57:53;19.80;1.00
20291;DHT22;10304;51.074;13.754;2023-07-20T07:00:25;19.80;1.00
20291;DHT22;10304;51.074;13.754;2023-07-20T07:02:52;19.70;38.30
20291;DHT22;10304;51.074;13.754;2023-07-20T07:05:26;19.70;99.90
20291;DHT22;10304;51.074;13.754;2023-07-20T07:08:01;19.70;99.90
20291;DHT22;10304;51.074;13.754;2023-07-20T07:10:28;19.70;1.00
20291;DHT22;10304;51.074;13.754;2023-07-20T07:12:55;19.70;1.00
20291;DHT22;10304;51.074;13.754;2023-07-20T07:15:25;19.80;1.00
20291;DHT22;10304;51.074;13.754;2023-07-20T07:17:54;19.90;35.90
20291;DHT22;10304;51.074;13.754;2023-07-20T07:20:26;19.90;99.90
20291;DHT22;10304;51.074;13.754;2023-07-20T07:22:57;20.00;99.90
20291;DHT22;10304;51.074;13.754;2023-07-20T07:25:32;20.10;99.90
20291;DHT22;10304;51.074;13.754;2023-07-20T07:28:02;20.10;1.00
20291;DHT22;10304;51.074;13.754;2023-07-20T07:30:45;20.30;99.90
20291;DHT22;10304;51.074;13.754;2023-07-20T07:34:16;20.40;99.90
20291;DHT22;10304;51.074;13.754;2023-07-20T07:44:12;20.70;99.90
20291;DHT22;10304;51.074;13.754;2023-07-20T07:55:10;21.00;99.90
20291;DHT22;10304;51.074;13.754;2023-07-20T08:02:27;21.30;99.90
20291;DHT22;10304;51.074;13.754;2023-07-20T08:09:13;21.60;1.00
20291;DHT22;10304;51.074;13.754;2023-07-20T08:11:46;21.70;1.00
20291;DHT22;10304;51.074;13.754;2023-07-20T08:14:39;21.80;1.00
20291;DHT22;10304;51.074;13.754;2023-07-20T08:17:25;21.90;1.00
20291;DHT22;10304;51.074;13.754;2023-07-20T08:19:55;22.00;1.00
20291;DHT22;10304;51.074;13.754;2023-07-20T08:22:29;22.00;99.90
20291;DHT22;10304;51.074;13.754;2023-07-20T08:25:04;22.00;99.90
20291;DHT22;10304;51.074;13.754;2023-07-20T08:27:36;22.10;99.90
20291;DHT22;10304;51.074;13.754;2023-07-20T08:30:07;22.10;99.90
20291;DHT22;10304;51.074;13.754;2023-07-20T08:33:05;22.10;99.90
20291;DHT22;10304;51.074;13.754;2023-07-20T08:35:46;22.10;99.90
20291;DHT22;10304;51.074;13.754;2023-07-20T08:38:16;22.10;99.90
20291;DHT22;10304;51.074;13.754;2023-07-20T08:40:47;22.10;18.90
20291;DHT22;10304;51.074;13.754;2023-07-20T08:43:27;22.10;1.00
20291;DHT22;10304;51.074;13.754;2023-07-20T08:45:55;22.10;1.00
20291;DHT22;10304;51.074;13.754;2023-07-20T08:48:26;22.20;1.00
20291;DHT22;10304;51.074;13.754;2023-07-20T08:50:56;22.20;1.00
20291;DHT22;10304;51.074;13.754;2023-07-20T08:53:27;22.30;1.00
20291;DHT22;10304;51.074;13.754;2023-07-20T08:55:58;22.40;1.00
20291;DHT22;10304;51.074;13.754;2023-07-20T08:58:27;22.40;1.00
20291;DHT22;10304;51.074;13.754;2023-07-20T09:00:55;22.50;1.00
20291;DHT22;10304;51.074;13.754;2023-07-20T09:03:26;22.60;1.00
20291;DHT22;10304;51.074;13.754;2023-07-20T09:05:53;22.70;1.00
20291;DHT22;10304;51.074;13.754;2023-07-20T09:08:23;22.80;1.00
20291;DHT22;10304;51.074;13.754;2023-07-20T09:10:49;22.90;1.00
20291;DHT22;10304;51.074;13.754;2023-07-20T09:13:28;23.00;1.00
20291;DHT22;10304;51.074;13.754;2023-07-20T09:15:54;23.20;99.90
20291;DHT22;10304;51.074;13.754;2023-07-20T09:18:30;23.20;99.90
20291;DHT22;10304;51.074;13.754;2023-07-20T09:21:04;23.20;99.90
20291;DHT22;10304;51.074;13.754;2023-07-20T09:23:33;23.20;99.90
20291;DHT22;10304;51.074;13.754;2023-07-20T09:26:09;23.20;99.90
20291;DHT22;10304;51.074;13.754;2023-07-20T09:28:44;23.30;99.90
20291;DHT22;10304;51.074;13.754;2023-07-20T09:31:18;23.40;99.90
20291;DHT22;10304;51.074;13.754;2023-07-20T09:33:50;23.60;99.90
20291;DHT22;10304;51.074;13.754;2023-07-20T09:36:21;23.60;99.90
20291;DHT22;10304;51.074;13.754;2023-07-20T09:39:08;23.60;99.90
20291;DHT22;10304;51.074;13.754;2023-07-20T09:42:01;23.60;99.90
20291;DHT22;10304;51.074;13.754;2023-07-20T09:44:32;23.60;93.00
20291;DHT22;10304;51.074;13.754;2023-07-20T09:47:05;23.60;99.20
20291;DHT22;10304;51.074;13.754;2023-07-20T09:49:41;23.60;99.20
20291;DHT22;10304;51.074;13.754;2023-07-20T09:52:11;23.70;99.90
20291;DHT22;10304;51.074;13.754;2023-07-20T09:54:49;23.60;99.90
20291;DHT22;10304;51.074;13.754;2023-07-20T09:57:16;23.60;99.90
20291;DHT22;10304;51.074;13.754;2023-07-20T09:59:43;23.60;99.90
20291;DHT22;10304;51.074;13.754;2023-07-20T10:02:23;23.60;99.90
20291;DHT22;10304;51.074;13.754;2023-07-20T10:05:16;23.50;99.90
20291;DHT22;10304;51.074;13.754;2023-07-20T10:08:29;23.40;99.90
20291;DHT22;10304;51.074;13.754;2023-07-20T10:10:59;23.10;99.90
20291;DHT22;10304;51.074;13.754;2023-07-20T10:13:38;22.80;1.00
20291;DHT22;10304;51.074;13.754;2023-07-20T10:16:15;22.40;1.00
20291;DHT22;10304;51.074;13.754;2023-07-20T10:21:48;21.90;99.90
20291;DHT22;10304;51.074;13.754;2023-07-20T10:24:22;21.90;99.90
20291;DHT22;10304;51.074;13.754;2023-07-20T10:26:49;21.90;99.90
20291;DHT22;10304;51.074;13.754;2023-07-20T10:29:28;21.90;99.90
20291;DHT22;10304;51.074;13.754;2023-07-20T10:31:56;21.90;1.00
20291;DHT22;10304;51.074;13.754;2023-07-20T10:34:50;22.00;1.00
20291;DHT22;10304;51.074;13.754;2023-07-20T10:37:49;22.00;1.00
20291;DHT22;10304;51.074;13.754;2023-07-20T10:43:42;22.20;99.90
20291;DHT22;10304;51.074;13.754;2023-07-20T10:46:17;22.30;1.00
20291;DHT22;10304;51.074;13.754;2023-07-20T10:49:08;22.50;1.00
20291;DHT22;10304;51.074;13.754;2023-07-20T10:52:03;22.80;99.90
20291;DHT22;10304;51.074;13.754;2023-07-20T10:55:10;22.90;99.90
20291;DHT22;10304;51.074;13.754;2023-07-20T11:05:49;23.30;1.00
20291;DHT22;10304;51.074;13.754;2023-07-20T11:36:26;24.40;1.00
20291;DHT22;10304;51.074;13.754;2023-07-20T11:45:03;26.60;99.90
20291;DHT22;10304;51.074;13.754;2023-07-20T11:47:31;27.20;91.40
20291;DHT22;10304;51.074;13.754;2023-07-20T11:50:03;27.60;1.00
20291;DHT22;10304;51.074;13.754;2023-07-20T11:52:30;27.90;1.00
20291;DHT22;10304;51.074;13.754;2023-07-20T11:54:58;28.00;1.00
20291;DHT22;10304;51.074;13.754;2023-07-20T11:57:25;28.00;1.00
20291;DHT22;10304;51.074;13.754;2023-07-20T11:59:55;27.90;1.00
20291;DHT22;10304;51.074;13.754;2023-07-20T12:02:30;27.70;1.00
20291;DHT22;10304;51.074;13.754;2023-07-20T12:04:58;27.50;1.00
20291;DHT22;10304;51.074;13.754;2023-07-20T12:07:27;27.30;1.00
20291;DHT22;10304;51.074;13.754;2023-07-20T12:10:24;27.10;1.00
20291;DHT22;10304;51.074;13.754;2023-07-20T12:12:52;26.70;1.00
20291;DHT22;10304;51.074;13.754;2023-07-20T12:15:22;26.50;1.00
20291;DHT22;10304;51.074;13.754;2023-07-20T12:17:50;26.20;1.00
20291;DHT22;10304;51.074;13.754;2023-07-20T12:20:32;26.00;1.00
20291;DHT22;10304;51.074;13.754;2023-07-20T12:23:10;25.70;1.00
20291;DHT22;10304;51.074;13.754;2023-07-20T12:25:45;25.40;1.00
20291;DHT22;10304;51.074;13.754;2023-07-20T12:28:14;25.20;1.00
20291;DHT22;10304;51.074;13.754;2023-07-20T12:30:43;25.00;1.00
20291;DHT22;10304;51.074;13.754;2023-07-20T12:33:10;24.80;1.00
20291;DHT22;10304;51.074;13.754;2023-07-20T12:35:38;24.60;1.00
20291;DHT22;10304;51.074;13.754;2023-07-20T12:38:05;24.40;1.00
20291;DHT22;10304;51.074;13.754;2023-07-20T12:40:33;24.30;11.80
20291;DHT22;10304;51.074;13.754;2023-07-20T12:43:00;24.00;99.90
20291;DHT22;10304;51.074;13.754;2023-07-20T12:45:27;23.80;99.90
20291;DHT22;10304;51.074;13.754;2023-07-20T12:47:54;23.60;99.90
20291;DHT22;10304;51.074;13.754;2023-07-20T12:50:20;23.50;99.90
20291;DHT22;10304;51.074;13.754;2023-07-20T12:52:47;23.30;99.90
20291;DHT22;10304;51.074;13.754;2023-07-20T12:55:14;23.10;99.90
20291;DHT22;10304;51.074;13.754;2023-07-20T12:57:41;22.90;99.90
20291;DHT22;10304;51.074;13.754;2023-07-20T13:00:10;22.90;99.90
20291;DHT22;10304;51.074;13.754;2023-07-20T13:02:38;22.80;99.90
20291;DHT22;10304;51.074;13.754;2023-07-20T13:05:05;22.60;99.90
20291;DHT22;10304;51.074;13.754;2023-07-20T13:07:34;22.50;99.90
20291;DHT22;10304;51.074;13.754;2023-07-20T13:10:05;22.40;1.00
20291;DHT22;10304;51.074;13.754;2023-07-20T13:12:33;22.40;1.00
20291;DHT22;10304;51.074;13.754;2023-07-20T13:15:02;22.30;1.00
20291;DHT22;10304;51.074;13.754;2023-07-20T13:17:33;22.30;1.00
20291;DHT22;10304;51.074;13.754;2023-07-20T13:20:01;22.20;1.00
20291;DHT22;10304;51.074;13.754;2023-07-20T13:22:28;22.20;1.00
20291;DHT22;10304;51.074;13.754;2023-07-20T13:24:54;22.20;1.00
20291;DHT22;10304;51.074;13.754;2023-07-20T13:27:21;22.10;1.00
20291;DHT22;10304;51.074;13.754;2023-07-20T13:29:48;22.10;1.00
20291;DHT22;10304;51.074;13.754;2023-07-20T13:32:15;22.00;1.00
20291;DHT22;10304;51.074;13.754;2023-07-20T13:34:43;22.00;1.00
20291;DHT22;10304;51.074;13.754;2023-07-20T13:37:14;22.00;1.00
20291;DHT22;10304;51.074;13.754;2023-07-20T13:39:43;22.00;1.00
20291;DHT22;10304;51.074;13.754;2023-07-20T13:42:11;22.10;99.90
20291;DHT22;10304;51.074;13.754;2023-07-20T13:44:39;22.10;1.00
20291;DHT22;10304;51.074;13.754;2023-07-20T13:47:06;22.10;99.90
20291;DHT22;10304;51.074;13.754;2023-07-20T13:49:36;22.10;99.90
20291;DHT22;10304;51.074;13.754;2023-07-20T13:52:11;22.20;99.90
20291;DHT22;10304;51.074;13.754;2023-07-20T13:54:41;22.20;99.90
20291;DHT22;10304;51.074;13.754;2023-07-20T13:57:14;22.20;99.90
20291;DHT22;10304;51.074;13.754;2023-07-20T13:59:42;22.30;99.90
20291;DHT22;10304;51.074;13.754;2023-07-20T14:02:09;22.30;99.90
20291;DHT22;10304;51.074;13.754;2023-07-20T14:04:40;22.40;99.90
20291;DHT22;10304;51.074;13.754;2023-07-20T14:07:07;22.50;99.90
20291;DHT22;10304;51.074;13.754;2023-07-20T14:09:34;22.60;99.90
20291;DHT22;10304;51.074;13.754;2023-07-20T14:12:01;22.60;99.90
20291;DHT22;10304;51.074;13.754;2023-07-20T14:14:31;22.70;99.90
20291;DHT22;10304;51.074;13.754;2023-07-20T14:16:58;22.70;99.90
20291;DHT22;10304;51.074;13.754;2023-07-20T14:19:24;22.70;99.90
20291;DHT22;10304;51.074;13.754;2023-07-20T14:21:51;22.70;99.90
20291;DHT22;10304;51.074;13.754;2023-07-20T14:24:18;22.80;99.90
20291;DHT22;10304;51.074;13.754;2023-07-20T14:26:45;22.80;99.90
20291;DHT22;10304;51.074;13.754;2023-07-20T14:29:18;22.80;99.90
20291;DHT22;10304;51.074;13.754;2023-07-20T14:31:45;23.00;99.90
20291;DHT22;10304;51.074;13.754;2023-07-20T14:34:17;23.10;99.90
20291;DHT22;10304;51.074;13.754;2023-07-20T14:36:45;23.20;99.90
20291;DHT22;10304;51.074;13.754;2023-07-20T14:39:12;23.30;99.90
20291;DHT22;10304;51.074;13.754;2023-07-20T14:41:39;23.40;99.90
20291;DHT22;10304;51.074;13.754;2023-07-20T14:44:06;23.50;99.90
20291;DHT22;10304;51.074;13.754;2023-07-20T14:46:32;23.50;99.90
20291;DHT22;10304;51.074;13.754;2023-07-20T14:48:59;23.80;99.90
20291;DHT22;10304;51.074;13.754;2023-07-20T14:51:26;24.10;99.90
20291;DHT22;10304;51.074;13.754;2023-07-20T14:54:01;24.50;99.90
20291;DHT22;10304;51.074;13.754;2023-07-20T14:56:28;24.90;96.40
20291;DHT22;10304;51.074;13.754;2023-07-20T14:58:55;25.30;9.00
20291;DHT22;10304;51.074;13.754;2023-07-20T15:01:21;25.50;1.00
20291;DHT22;10304;51.074;13.754;2023-07-20T15:03:48;25.80;1.00
20291;DHT22;10304;51.074;13.754;2023-07-20T15:06:19;26.10;1.00
20291;DHT22;10304;51.074;13.754;2023-07-20T15:08:46;26.50;1.00
20291;DHT22;10304;51.074;13.754;2023-07-20T15:11:13;26.90;1.00
20291;DHT22;10304;51.074;13.754;2023-07-20T15:13:39;27.00;1.00
20291;DHT22;10304;51.074;13.754;2023-07-20T15:16:09;27.30;1.00
20291;DHT22;10304;51.074;13.754;2023-07-20T15:18:39;27.60;1.00
20291;DHT22;10304;51.074;13.754;2023-07-20T15:21:15;27.90;1.00
20291;DHT22;10304;51.074;13.754;2023-07-20T15:23:43;28.00;1.00
20291;DHT22;10304;51.074;13.754;2023-07-20T15:26:10;28.10;1.00
20291;DHT22;10304;51.074;13.754;2023-07-20T15:28:40;28.20;1.00
20291;DHT22;10304;51.074;13.754;2023-07-20T15:31:08;28.20;1.00
20291;DHT22;10304;51.074;13.754;2023-07-20T15:33:34;28.10;1.00
20291;DHT22;10304;51.074;13.754;2023-07-20T15:36:01;27.90;1.00
20291;DHT22;10304;51.074;13.754;2023-07-20T15:38:28;27.60;1.00
20291;DHT22;10304;51.074;13.754;2023-07-20T15:40:55;27.40;1.00
20291;DHT22;10304;51.074;13.754;2023-07-20T15:43:23;27.30;1.00
20291;DHT22;10304;51.074;13.754;2023-07-20T15:45:50;27.40;1.00
20291;DHT22;10304;51.074;13.754;2023-07-20T15:48:22;27.10;1.00
20291;DHT22;10304;51.074;13.754;2023-07-20T15:50:49;26.80;1.00
20291;DHT22;10304;51.074;13.754;2023-07-20T15:53:16;26.60;1.00
20291;DHT22;10304;51.074;13.754;2023-07-20T15:55:43;26.70;1.00
20291;DHT22;10304;51.074;13.754;2023-07-20T15:58:10;26.70;1.00
20291;DHT22;10304;51.074;13.754;2023-07-20T16:00:36;26.80;1.00
20291;DHT22;10304;51.074;13.754;2023-07-20T16:03:04;26.90;1.00
20291;DHT22;10304;51.074;13.754;2023-07-20T16:05:32;27.00;1.00
20291;DHT22;10304;51.074;13.754;2023-07-20T16:08:00;27.20;1.00
20291;DHT22;10304;51.074;13.754;2023-07-20T16:10:27;27.30;1.00
20291;DHT22;10304;51.074;13.754;2023-07-20T16:12:55;27.30;1.00
20291;DHT22;10304;51.074;13.754;2023-07-20T16:15:21;27.30;1.00
20291;DHT22;10304;51.074;13.754;2023-07-20T16:17:52;27.20;1.00
20291;DHT22;10304;51.074;13.754;2023-07-20T16:20:19;27.20;1.00
20291;DHT22;10304;51.074;13.754;2023-07-20T16:22:45;27.10;1.00
20291;DHT22;10304;51.074;13.754;2023-07-20T16:25:12;26.90;1.00
20291;DHT22;10304;51.074;13.754;2023-07-20T16:27:39;26.90;1.00
20291;DHT22;10304;51.074;13.754;2023-07-20T16:30:06;26.80;1.00
20291;DHT22;10304;51.074;13.754;2023-07-20T16:32:33;26.80;1.00
20291;DHT22;10304;51.074;13.754;2023-07-20T16:35:00;26.80;1.00
20291;DHT22;10304;51.074;13.754;2023-07-20T16:37:30;26.70;1.00
20291;DHT22;10304;51.074;13.754;2023-07-20T16:39:59;26.60;1.00
20291;DHT22;10304;51.074;13.754;2023-07-20T16:42:27;26.50;1.00
20291;DHT22;10304;51.074;13.754;2023-07-20T16:44:57;26.40;1.00
20291;DHT22;10304;51.074;13.754;2023-07-20T16:47:24;26.30;1.00
20291;DHT22;10304;51.074;13.754;2023-07-20T16:49:51;26.10;1.00
20291;DHT22;10304;51.074;13.754;2023-07-20T16:52:18;25.90;1.00
20291;DHT22;10304;51.074;13.754;2023-07-20T16:54:45;25.80;1.00
20291;DHT22;10304;51.074;13.754;2023-07-20T16:57:11;25.70;1.00
20291;DHT22;10304;51.074;13.754;2023-07-20T16:59:38;25.70;1.00
20291;DHT22;10304;51.074;13.754;2023-07-20T17:02:05;25.60;1.00
20291;DHT22;10304;51.074;13.754;2023-07-20T17:04:32;25.60;1.00
20291;DHT22;10304;51.074;13.754;2023-07-20T17:06:59;25.50;1.00
20291;DHT22;10304;51.074;13.754;2023-07-20T17:09:26;25.50;1.00
20291;DHT22;10304;51.074;13.754;2023-07-20T17:11:54;25.50;1.00
20291;DHT22;10304;51.074;13.754;2023-07-20T17:14:20;25.40;1.00
20291;DHT22;10304;51.074;13.754;2023-07-20T17:16:49;25.50;1.00
20291;DHT22;10304;51.074;13.754;2023-07-20T17:19:16;25.40;1.00
20291;DHT22;10304;51.074;13.754;2023-07-20T17:21:43;25.40;1.00
20291;DHT22;10304;51.074;13.754;2023-07-20T17:24:10;25.30;1.00
20291;DHT22;10304;51.074;13.754;2023-07-20T17:26:39;25.20;1.00
20291;DHT22;10304;51.074;13.754;2023-07-20T17:29:08;25.20;1.00
20291;DHT22;10304;51.074;13.754;2023-07-20T17:31:35;25.10;1.00